FREE Download 100000+ Australian Companies Email List.

Note* Download file will be send on your above given email id, So Please use correct email id.
Search

03/06/2003 - Australian Company

ACNABNCompany NameDate Of Registration
104968425 73104968425 ADVANCED GAIT DYNAMICS PTY LTD03/06/2003
104952758 00000000000 URMYSUNSHINE PTY LTD03/06/2003
104954663 76104954663 ROZA ENTERPRISES PTY LTD03/06/2003
104968658 00000000000 INDEXED PTY. LTD.03/06/2003
104959435 54104959435 AUSTRALIAN PREMIER FINANCE COMPANY PTY LIMITED03/06/2003
104956309 83104956309 TINGILLA PTY LIMITED03/06/2003
104956425 21104956425 EUROPEAN AUTOMOTIVE IMPORTS (SOUTH AFRICAN DISTRIBUTION) PTY LTD03/06/2003
104958518 00000000000 PRATT HOLDINGS NO 4 PTY. LTD.03/06/2003
104969628 62104969628 UNIFIED HEALTH PTY LTD03/06/2003
104957146 89104957146 ARGYLE IMPORTS PTY LTD03/06/2003
104967875 00000000000 TRIEU INVESTMENTS PTY. LTD.03/06/2003
104963573 00000000000 LJ GATT PTY LTD03/06/2003
104968970 97104968970 T & R CASTLE PTY LTD03/06/2003
104961131 90104961131 BUSINESS FRAMEWORK GROUP PTY LTD03/06/2003
104952838 00000000000 BEACHSIDE HOLDINGS PTY LTD03/06/2003
104967099 40104967099 AUSCORE PTY LTD03/06/2003
104953308 52104953308 P & L TRANSPORT PTY LTD03/06/2003
104958527 31104958527 ARJ GROUP HOLDINGS PTY LTD03/06/2003
104968925 87104968925 AUSTRALIAN CONSTRUCTION EQUIPMENT RENTAL PTY LTD03/06/2003
104968729 41104968729 TANGA JUICE CARILLON PTY LTD03/06/2003
104965808 29104965808 MEDICAL MEETINGS INVESTMENTS PTY LIMITED03/06/2003
104956514 42104956514 SILVERFERN ASSET PTY LTD03/06/2003
104954341 15104954341 ANSON CITY DEVELOPMENTS 3 (AUSTRALIA) PTY LTD03/06/2003
104956149 45104956149 LODIAN PTY LTD03/06/2003
104968096 84104968096 ONLINE CONCRETING & CONSTRUCTIONS PTY LTD03/06/2003
104956425 21104956425 EUROPEAN AUTOMOTIVE IMPORTS (SOUTH AFRICAN DISTRIBUTION) PTY LTD03/06/2003
104954501 53104954501 CELEBRATING PTY LTD03/06/2003
104956327 00000000000 ELBINA PTY LIMITED03/06/2003
104962487 00000000000 KEMP ENTERPRISES AUSTRALIA PTY. LTD.03/06/2003
104961195 90104961195 HUCKEL CIVIL PTY LIMITED03/06/2003
104954323 11104954323 CUBE COLLECTION PTY LTD03/06/2003
104955973 90104955973 COOROY PLACE PTY LTD03/06/2003
104958572 00000000000 PRATT HOLDINGS NO 2 PTY. LTD.03/06/2003
104954556 51104954556 BHAN ENTERPRISE PTY LTD03/06/2003
104963340 00000000000 J & E RUSTEMI FLOWERS PTY LTD03/06/2003
104969628 62104969628 UNIFIED HEALTH PTY LTD03/06/2003
104967688 75104967688 CRAIGMAL PTY LTD03/06/2003
104968443 00000000000 CARTWRIGHT WEIS INVESTMENTS PTY LTD03/06/2003
104957299 00000000000 SAVANNAH INVESTMENTS PTY LTD03/06/2003
104961551 00000000000 HGS SUPERANNUATION FUND PTY LTD03/06/2003
104348852 95104348852 ENERGY INFRASTRUCTURE INVESTMENTS PTY LIMITED03/06/2003
104962870 12104962870 HONEYCOMBES DEVELOPMENT & CONSTRUCTION HOLDINGS PTY LTD03/06/2003
104969520 00000000000 ALEXSTAR HOLDINGS PTY LTD03/06/2003
104952463 43104952463 BRAIN SCIENCE PTY LTD03/06/2003
104965068 47104965068 S KOCHELAK TAKEAWAY PTY LTD03/06/2003
104959328 29104959328 PETRELLESE PTY LTD03/06/2003
104957459 59104957459 GIBBS CLUTCH INVESTMENTS PTY LIMITED03/06/2003
104969253 77104969253 HICKINBOTHAM.BIZ PTY LTD03/06/2003
104957084 74104957084 JASEBRYT PTY LTD03/06/2003
104961499 00000000000 DJG & SONS PTY LTD03/06/2003
104952534 00000000000 TARANAKI TILING PTY LTD03/06/2003
104954529 45104954529 REGENCY TOOL CO. PTY LTD03/06/2003
104963537 68104963537 BUSINESS GURU PTY LTD03/06/2003
104959435 54104959435 AUSTRALIAN PREMIER FINANCE COMPANY PTY LIMITED03/06/2003
104956390 12104956390 LINEAR FUNDS MANAGEMENT PTY LIMITED03/06/2003
104958723 77104958723 PAAL HOUSE PTY LTD03/06/2003
104955026 00000000000 NORHAVEN PTY. LTD.03/06/2003
104955044 79104955044 SHALMER PTY. LTD.03/06/2003
104962478 00000000000 GAVTRAC AUSTRALIA PTY. LTD.03/06/2003
104956505 40104956505 JETSTONE INVESTMENTS PTY LTD03/06/2003
104969271 81104969271 MCLEOD ENTERPRISES PTY LTD03/06/2003
104961480 68104961480 DENCORP FINANCIAL SOLUTIONS PTY LTD03/06/2003
104958554 00000000000 FIBREGLADE PROPRIETARY LIMITED03/06/2003
104956149 45104956149 LODIAN PTY LTD03/06/2003
104958652 00000000000 SPEEDYHALL PROPRIETARY LIMITED03/06/2003
104956621 67104956621 M&S LAMBERT PTY LTD03/06/2003
104952070 00000000000 OLSTY PTY LTD03/06/2003
104966305 59104966305 JAMES & JANETTE MCCONAGHY UT PTY LTD03/06/2003
104958330 88104958330 MARAPINA PTY LTD03/06/2003
104958527 31104958527 ARJ GROUP HOLDINGS PTY LTD03/06/2003
104957271 29104957271 HARDCRUSH INVESTMENTS PTY LTD03/06/2003
104962307 73104962307 DALEPEN PTY LTD03/06/2003
104958545 00000000000 PRATT HOLDINGS NO 3 PTY. LTD.03/06/2003
104348852 95104348852 ENERGY INFRASTRUCTURE INVESTMENTS PTY LIMITED03/06/2003
104952221 00000000000 BAY CITY MINI-MIX PTY LTD03/06/2003
104969208 00000000000 GRINLEY PTY LIMITED03/06/2003
104962192 00000000000 G & K MCCALMAN PTY LTD03/06/2003
104963206 00000000000 SAGACIOUS MANAGEMENT PTY LTD03/06/2003
104955606 19104955606 HONEYCOMBES ASSET HOLDINGS PTY LTD03/06/2003
104956381 99104956381 PVG HOLDINGS PTY LTD03/06/2003
104967928 43104967928 MAMMOET WIND PTY LTD03/06/2003
104966396 65104966396 CJ&M CONTRACTING PTY LIMITED03/06/2003
104957253 25104957253 GHOST GULLY PTY LTD03/06/2003
104969673 00000000000 CHURCH STREET PTY LTD03/06/2003
104960312 88104960312 LF APAC ADVISORY PTY LTD03/06/2003
104956498 23104956498 CITYPOINT ENTERPRISES PTY LTD03/06/2003
104959373 39104959373 DTR SERVICES PTY LTD03/06/2003
104966172 27104966172 PROACTIVE HR PTY LTD03/06/2003
104968103 00000000000 HURREN INVESTMENTS PTY LIMITED03/06/2003
104967446 00000000000 TEYS HOLDINGS PTY LTD03/06/2003
104957208 15104957208 PETERROL PTY LTD03/06/2003
104966029 83104966029 ACP SOLUTIONS PTY LTD03/06/2003
104968354 56104968354 PREMIER AVIATION HOLDINGS PTY LTD03/06/2003
104967964 51104967964 CCSL LIMITED03/06/2003
104958090 31104958090 KAL TECHNOLOGIES PTY. LTD.03/06/2003
104969173 58104969173 BODECARE DISTRIBUTIONS PTY LTD03/06/2003
104958438 99104958438 TARGET BODY WORKS PTY LTD03/06/2003
104958590 00000000000 MEYERLOCK PROPRIETARY LIMITED03/06/2003
104955553 00000000000 RUTHERFORD FAMILY SUPERANNUATION FUND PTY LTD03/06/2003
104969557 45104969557 TRAINEESHIP MANAGEMENT AUSTRALIA PTY. LTD.03/06/2003
Loading...